createdAt,value
2018-07-26T00:01:49.072Z,99.90
2018-07-26T00:04:17.508Z,99.90
2018-07-26T00:06:45.968Z,99.90
2018-07-26T00:09:14.411Z,99.90
2018-07-26T00:11:42.880Z,99.90
2018-07-26T00:14:11.304Z,99.90
2018-07-26T00:16:39.760Z,99.90
2018-07-26T00:19:08.196Z,99.90
2018-07-26T00:21:36.711Z,99.90
2018-07-26T00:24:05.113Z,99.90
2018-07-26T00:26:33.555Z,99.90
2018-07-26T00:29:01.985Z,99.90
2018-07-26T00:31:30.416Z,99.90
2018-07-26T00:33:58.853Z,99.90
2018-07-26T00:36:27.271Z,99.90
2018-07-26T00:38:55.722Z,99.90
2018-07-26T00:41:24.208Z,99.90
2018-07-26T00:43:52.669Z,99.90
2018-07-26T00:46:21.083Z,99.90
2018-07-26T00:48:49.787Z,99.90
2018-07-26T00:51:18.199Z,99.90
2018-07-26T00:53:46.644Z,99.90
2018-07-26T00:56:15.073Z,99.90
2018-07-26T00:58:44.286Z,99.90
2018-07-26T01:01:12.711Z,99.90
2018-07-26T01:03:41.171Z,99.90
2018-07-26T01:06:09.604Z,99.90
2018-07-26T01:08:38.054Z,99.90
2018-07-26T01:11:06.535Z,99.90
2018-07-26T01:13:35.020Z,99.90
2018-07-26T01:16:03.505Z,99.90
2018-07-26T01:18:31.992Z,99.90
2018-07-26T01:21:00.461Z,99.90
2018-07-26T01:23:28.900Z,99.90
2018-07-26T01:25:57.352Z,99.90
2018-07-26T01:28:25.840Z,99.90
2018-07-26T01:30:54.323Z,99.90
2018-07-26T01:33:22.749Z,99.90
2018-07-26T01:35:51.199Z,99.90
2018-07-26T01:38:19.659Z,99.90
2018-07-26T01:40:48.097Z,99.90
2018-07-26T01:43:57.115Z,99.90
2018-07-26T01:46:26.514Z,99.90
2018-07-26T01:48:54.943Z,99.90
2018-07-26T01:51:23.387Z,99.90
2018-07-26T01:53:51.823Z,99.90
2018-07-26T01:56:20.308Z,99.90
2018-07-26T01:58:48.737Z,99.90
2018-07-26T02:01:17.176Z,99.90
2018-07-26T02:03:45.644Z,99.90
2018-07-26T02:06:14.075Z,99.90
2018-07-26T02:08:42.523Z,99.90
2018-07-26T02:11:10.989Z,99.90
2018-07-26T02:13:39.442Z,99.90
2018-07-26T02:16:07.896Z,99.90
2018-07-26T02:18:36.355Z,99.90
2018-07-26T02:21:04.803Z,99.90
2018-07-26T02:23:33.248Z,99.90
2018-07-26T02:26:01.712Z,99.90
2018-07-26T02:28:30.155Z,99.90
2018-07-26T02:30:58.602Z,99.90
2018-07-26T02:33:27.086Z,99.90
2018-07-26T02:35:55.507Z,99.90
2018-07-26T02:38:23.971Z,99.90
2018-07-26T02:40:52.393Z,99.90
2018-07-26T02:43:20.843Z,99.90
2018-07-26T02:45:49.265Z,99.90
2018-07-26T02:48:17.733Z,99.90
2018-07-26T02:50:46.179Z,99.90
2018-07-26T02:53:14.652Z,99.90
2018-07-26T02:55:43.079Z,99.90
2018-07-26T02:58:11.541Z,99.90
2018-07-26T03:00:39.995Z,99.90
2018-07-26T03:03:08.436Z,99.90
2018-07-26T03:05:36.875Z,99.90
2018-07-26T03:08:05.439Z,99.90
2018-07-26T03:10:33.903Z,99.90
2018-07-26T03:13:02.344Z,99.90
2018-07-26T03:15:30.840Z,99.90
2018-07-26T03:17:59.246Z,99.90
2018-07-26T03:20:27.724Z,99.90
2018-07-26T03:22:56.144Z,99.90
2018-07-26T03:25:24.588Z,99.90
2018-07-26T03:27:53.016Z,99.90
2018-07-26T03:30:21.798Z,99.90
2018-07-26T03:32:50.292Z,99.90
2018-07-26T03:35:18.711Z,99.90
2018-07-26T03:37:47.100Z,99.90
2018-07-26T03:40:15.527Z,99.90
2018-07-26T03:42:43.911Z,99.90
2018-07-26T03:45:12.355Z,99.90
2018-07-26T03:47:40.732Z,99.90
2018-07-26T03:50:09.167Z,99.90
2018-07-26T03:52:37.642Z,99.90
2018-07-26T03:55:06.011Z,99.90
2018-07-26T03:57:34.434Z,99.90
2018-07-26T04:00:02.836Z,99.90
2018-07-26T04:02:31.235Z,99.90
2018-07-26T04:04:59.612Z,99.90
2018-07-26T04:07:28.039Z,99.90
2018-07-26T04:09:56.430Z,99.90
2018-07-26T04:12:24.859Z,99.90
2018-07-26T04:14:53.240Z,99.90
2018-07-26T04:17:21.637Z,99.90
2018-07-26T04:19:50.020Z,99.90
2018-07-26T04:22:18.428Z,99.90
2018-07-26T04:24:46.798Z,99.90
2018-07-26T04:27:15.201Z,99.90
2018-07-26T04:29:43.604Z,99.90
2018-07-26T04:32:12.039Z,99.90
2018-07-26T04:34:43.532Z,99.90
2018-07-26T04:37:11.939Z,99.90
2018-07-26T04:39:40.318Z,99.90
2018-07-26T04:42:08.715Z,99.90
2018-07-26T04:44:37.112Z,99.90
2018-07-26T04:47:05.547Z,99.90
2018-07-26T04:49:33.919Z,99.90
2018-07-26T04:52:02.319Z,99.90
2018-07-26T04:54:30.804Z,99.90
2018-07-26T04:56:59.147Z,99.90
2018-07-26T04:59:27.556Z,99.90
2018-07-26T05:01:55.954Z,99.90
2018-07-26T05:04:24.363Z,99.90
2018-07-26T05:06:52.744Z,99.90
2018-07-26T05:09:21.151Z,99.90
2018-07-26T05:11:49.581Z,99.90
2018-07-26T05:14:17.972Z,99.90
2018-07-26T05:16:46.371Z,99.90
2018-07-26T05:19:14.773Z,99.90
2018-07-26T05:21:43.163Z,99.90
2018-07-26T05:24:11.571Z,99.90
2018-07-26T05:26:40.203Z,99.90
2018-07-26T05:29:08.627Z,99.90
2018-07-26T05:31:37.008Z,99.90
2018-07-26T05:34:05.659Z,99.90
2018-07-26T05:36:34.071Z,99.90
2018-07-26T05:39:02.482Z,99.90
2018-07-26T05:41:30.873Z,99.90
2018-07-26T05:43:59.275Z,99.90
2018-07-26T05:46:27.706Z,99.80
2018-07-26T05:48:56.234Z,97.20
2018-07-26T05:51:24.649Z,95.20
2018-07-26T05:53:53.055Z,93.30
2018-07-26T05:56:21.454Z,91.00
2018-07-26T05:58:49.851Z,88.30
2018-07-26T06:01:18.265Z,84.90
2018-07-26T06:03:46.824Z,81.00
2018-07-26T06:06:15.246Z,79.00
2018-07-26T06:08:43.634Z,74.90
2018-07-26T06:11:12.070Z,72.70
2018-07-26T06:13:40.451Z,70.00
2018-07-26T06:18:36.962Z,68.80
2018-07-26T06:21:05.385Z,67.30
2018-07-26T06:26:01.927Z,65.30
2018-07-26T06:28:30.321Z,64.60
2018-07-26T06:33:26.871Z,60.90
2018-07-26T06:35:55.254Z,60.80
2018-07-26T06:38:23.633Z,61.10
2018-07-26T06:40:52.043Z,57.40
2018-07-26T06:43:20.424Z,59.20
2018-07-26T06:45:48.818Z,58.10
2018-07-26T06:48:17.223Z,56.00
2018-07-26T06:50:45.654Z,55.20
2018-07-26T06:55:42.176Z,55.10
2018-07-26T06:58:10.563Z,54.20
2018-07-26T07:00:38.992Z,53.60
2018-07-26T07:03:07.417Z,54.30
2018-07-26T07:05:35.819Z,54.40
2018-07-26T07:10:32.379Z,54.30
2018-07-26T07:13:00.759Z,54.20
2018-07-26T07:15:29.160Z,53.90
2018-07-26T07:17:58.587Z,52.90
2018-07-26T07:20:27.026Z,53.60
2018-07-26T07:22:55.459Z,53.60
2018-07-26T07:25:23.845Z,51.80
2018-07-26T07:27:52.489Z,51.30
2018-07-26T07:30:20.844Z,50.90
2018-07-26T07:32:49.258Z,51.70
2018-07-26T07:35:17.705Z,51.30
2018-07-26T07:37:46.111Z,51.70
2018-07-26T07:40:14.544Z,51.70
2018-07-26T07:42:42.952Z,52.10
2018-07-26T07:45:11.325Z,52.10
2018-07-26T07:47:39.774Z,52.60
2018-07-26T07:50:08.233Z,51.20
2018-07-26T07:52:36.888Z,51.70
2018-07-26T07:55:05.664Z,52.30
2018-07-26T07:57:34.123Z,53.20
2018-07-26T08:00:02.522Z,52.40
2018-07-26T08:02:30.920Z,51.50
2018-07-26T08:04:59.307Z,52.70
2018-07-26T08:07:27.733Z,52.40
2018-07-26T08:09:56.143Z,52.00
2018-07-26T08:12:24.540Z,51.40
2018-07-26T08:14:52.943Z,50.40
2018-07-26T08:17:21.392Z,50.50
2018-07-26T08:19:49.770Z,49.80
2018-07-26T08:22:18.218Z,49.80
2018-07-26T08:24:46.705Z,51.20
2018-07-26T08:27:15.234Z,50.30
2018-07-26T08:29:43.616Z,51.30
2018-07-26T08:32:12.019Z,49.70
2018-07-26T08:34:40.392Z,48.70
2018-07-26T08:37:08.841Z,49.10
2018-07-26T08:39:37.264Z,50.60
2018-07-26T08:42:05.713Z,49.60
2018-07-26T08:44:34.088Z,49.30
2018-07-26T08:47:02.508Z,49.00
2018-07-26T08:49:30.879Z,50.60
2018-07-26T08:51:59.326Z,50.70
2018-07-26T08:54:27.720Z,50.30
2018-07-26T08:56:56.119Z,47.90
2018-07-26T08:59:24.517Z,48.70
2018-07-26T09:01:52.919Z,48.80
2018-07-26T09:04:21.330Z,48.40
2018-07-26T09:06:49.736Z,50.60
2018-07-26T09:09:18.156Z,48.50
2018-07-26T09:11:46.581Z,48.60
2018-07-26T09:14:15.055Z,48.60
2018-07-26T09:16:43.475Z,49.00
2018-07-26T09:19:11.892Z,49.20
2018-07-26T09:21:40.274Z,49.50
2018-07-26T09:24:08.718Z,49.40
2018-07-26T09:26:37.172Z,49.80
2018-07-26T09:29:05.572Z,49.50
2018-07-26T09:31:34.007Z,50.10
2018-07-26T09:34:02.408Z,49.30
2018-07-26T09:36:30.806Z,48.00
2018-07-26T09:38:59.205Z,47.00
2018-07-26T09:41:27.623Z,47.70
2018-07-26T09:43:56.013Z,48.60
2018-07-26T09:46:24.400Z,48.40
2018-07-26T09:48:52.800Z,49.40
2018-07-26T09:51:21.182Z,47.40
2018-07-26T09:53:49.570Z,47.70
2018-07-26T09:56:17.954Z,49.10
2018-07-26T09:58:46.363Z,48.30
2018-07-26T10:01:20.105Z,48.20
2018-07-26T10:03:48.499Z,48.50
2018-07-26T10:06:16.897Z,47.40
2018-07-26T10:08:45.306Z,47.30
2018-07-26T10:11:13.711Z,46.30
2018-07-26T10:13:42.114Z,45.70
2018-07-26T10:16:10.535Z,46.60
2018-07-26T10:18:38.970Z,45.80
2018-07-26T10:21:07.558Z,45.30
2018-07-26T10:23:36.012Z,45.40
2018-07-26T10:26:04.439Z,45.20
2018-07-26T10:28:32.885Z,45.40
2018-07-26T10:31:01.369Z,45.30
2018-07-26T10:33:29.767Z,46.90
2018-07-26T10:35:58.144Z,45.00
2018-07-26T10:38:26.559Z,45.70
2018-07-26T10:40:54.927Z,47.10
2018-07-26T10:45:51.440Z,45.30
2018-07-26T10:48:19.844Z,46.60
2018-07-26T10:50:48.227Z,46.90
2018-07-26T10:53:16.658Z,45.90
2018-07-26T10:55:45.041Z,45.30
2018-07-26T10:58:13.455Z,43.90
2018-07-26T11:00:41.836Z,44.20
2018-07-26T11:03:10.266Z,45.50
2018-07-26T11:05:38.669Z,46.00
2018-07-26T11:08:07.068Z,46.40
2018-07-26T11:10:35.467Z,47.00
2018-07-26T11:13:03.875Z,45.40
2018-07-26T11:15:34.596Z,46.10
2018-07-26T11:18:03.303Z,45.90
2018-07-26T11:20:31.716Z,46.80
2018-07-26T11:23:00.364Z,46.80
2018-07-26T11:25:28.801Z,46.10
2018-07-26T11:27:57.216Z,46.00
2018-07-26T11:30:25.649Z,46.60
2018-07-26T11:32:54.072Z,44.80
2018-07-26T11:35:22.493Z,45.80
2018-07-26T11:37:50.916Z,45.30
2018-07-26T11:40:19.328Z,44.40
2018-07-26T11:42:47.742Z,44.40
2018-07-26T11:45:16.187Z,44.30
2018-07-26T11:50:13.130Z,45.40
2018-07-26T11:52:41.537Z,44.60
2018-07-26T11:55:09.971Z,43.40
2018-07-26T11:57:38.437Z,43.20
2018-07-26T12:00:08.170Z,44.10
2018-07-26T12:02:36.648Z,43.80
2018-07-26T12:05:05.212Z,42.70
2018-07-26T12:07:33.594Z,42.90
2018-07-26T12:10:02.016Z,42.70
2018-07-26T12:12:30.411Z,43.10
2018-07-26T12:14:58.815Z,44.20
2018-07-26T12:17:27.193Z,43.70
2018-07-26T12:19:55.592Z,44.60
2018-07-26T12:22:23.971Z,44.70
2018-07-26T12:24:52.461Z,44.00
2018-07-26T12:27:20.845Z,44.60
2018-07-26T12:29:49.247Z,43.80
2018-07-26T12:32:17.634Z,43.00
2018-07-26T12:34:46.086Z,43.10
2018-07-26T12:37:14.471Z,43.00
2018-07-26T12:39:42.903Z,42.40
2018-07-26T12:44:39.429Z,44.40
2018-07-26T12:47:07.837Z,43.60
2018-07-26T12:49:36.290Z,44.90
2018-07-26T12:52:04.697Z,45.00
2018-07-26T12:57:01.243Z,43.70
2018-07-26T12:59:29.679Z,42.80
2018-07-26T13:01:58.095Z,43.30
2018-07-26T13:04:26.493Z,43.70
2018-07-26T13:06:54.872Z,43.40
2018-07-26T13:09:23.286Z,42.50
2018-07-26T13:11:51.667Z,43.50
2018-07-26T13:14:20.072Z,44.90
2018-07-26T13:16:48.451Z,44.10
2018-07-26T13:19:16.891Z,42.70
2018-07-26T13:21:45.320Z,43.80
2018-07-26T13:24:13.723Z,43.30
2018-07-26T13:26:42.099Z,44.00
2018-07-26T13:29:10.496Z,42.50
2018-07-26T13:31:38.921Z,42.80
2018-07-26T13:34:07.351Z,42.80
2018-07-26T13:36:35.728Z,43.30
2018-07-26T13:39:06.960Z,43.50
2018-07-26T13:41:35.351Z,43.40
2018-07-26T13:44:03.767Z,43.60
2018-07-26T13:49:00.503Z,43.40
2018-07-26T13:51:29.103Z,43.10
2018-07-26T13:53:57.474Z,42.80
2018-07-26T13:56:25.947Z,42.30
2018-07-26T13:58:54.351Z,43.30
2018-07-26T14:01:22.816Z,43.60
2018-07-26T14:03:51.222Z,44.00
2018-07-26T14:06:19.644Z,44.50
2018-07-26T14:08:48.040Z,44.10
2018-07-26T14:11:16.608Z,44.10
2018-07-26T14:13:45.009Z,45.00
2018-07-26T14:16:13.421Z,43.20
2018-07-26T14:18:41.795Z,44.10
2018-07-26T14:21:10.259Z,43.00
2018-07-26T14:23:39.736Z,43.40
2018-07-26T14:26:10.120Z,40.60
2018-07-26T14:28:38.683Z,40.80
2018-07-26T14:31:07.492Z,41.10
2018-07-26T14:33:35.882Z,41.50
2018-07-26T14:36:04.304Z,41.20
2018-07-26T14:38:32.687Z,42.90
2018-07-26T14:41:01.116Z,40.50
2018-07-26T14:43:29.570Z,40.70
2018-07-26T14:45:57.964Z,41.30
2018-07-26T14:51:11.936Z,41.80
2018-07-26T14:56:27.266Z,43.00
2018-07-26T14:58:55.649Z,41.50
2018-07-26T15:01:24.371Z,41.90
2018-07-26T15:03:52.769Z,41.00
2018-07-26T15:06:21.199Z,41.30
2018-07-26T15:08:49.565Z,42.50
2018-07-26T15:11:18.371Z,41.40
2018-07-26T15:13:46.775Z,41.00
2018-07-26T15:16:15.175Z,41.40
2018-07-26T15:21:11.988Z,40.70
2018-07-26T15:23:40.519Z,41.70
2018-07-26T15:26:08.956Z,40.80
2018-07-26T15:28:37.384Z,40.70
2018-07-26T15:31:05.812Z,41.30
2018-07-26T15:33:34.204Z,40.60
2018-07-26T15:36:02.625Z,41.50
2018-07-26T15:38:31.010Z,41.00
2018-07-26T15:40:59.425Z,41.50
2018-07-26T15:43:27.819Z,39.80
2018-07-26T15:45:56.245Z,39.50
2018-07-26T15:48:24.638Z,40.00
2018-07-26T15:50:53.044Z,42.00
2018-07-26T15:53:21.414Z,41.20
2018-07-26T15:55:49.814Z,42.30
2018-07-26T15:58:18.201Z,41.00
2018-07-26T16:00:46.651Z,41.10
2018-07-26T16:03:15.152Z,41.90
2018-07-26T16:05:43.600Z,42.00
2018-07-26T16:08:12.004Z,41.00
2018-07-26T16:10:41.387Z,41.40
2018-07-26T16:13:09.775Z,41.80
2018-07-26T16:15:38.218Z,42.70
2018-07-26T16:18:06.704Z,42.80
2018-07-26T16:20:35.079Z,43.30
2018-07-26T16:23:03.550Z,42.60
2018-07-26T16:25:32.046Z,41.50
2018-07-26T16:28:00.491Z,40.80
2018-07-26T16:30:28.897Z,41.40
2018-07-26T16:32:57.308Z,41.80
2018-07-26T16:35:25.693Z,41.70
2018-07-26T16:37:54.083Z,41.90
2018-07-26T16:40:22.461Z,42.00
2018-07-26T16:42:50.883Z,42.60
2018-07-26T16:45:19.287Z,43.30
2018-07-26T16:47:47.699Z,43.20
2018-07-26T16:50:16.760Z,43.50
2018-07-26T16:52:45.178Z,43.30
2018-07-26T16:55:13.584Z,43.00
2018-07-26T16:57:41.979Z,43.60
2018-07-26T17:00:11.020Z,44.00
2018-07-26T17:02:39.474Z,43.50
2018-07-26T17:05:08.296Z,43.60
2018-07-26T17:07:36.755Z,43.70
2018-07-26T17:10:06.341Z,43.60
2018-07-26T17:12:34.792Z,43.00
2018-07-26T17:15:03.228Z,43.90
2018-07-26T17:17:31.635Z,44.70
2018-07-26T17:20:00.034Z,45.50
2018-07-26T17:22:28.467Z,45.00
2018-07-26T17:24:56.855Z,45.40
2018-07-26T17:27:25.268Z,45.70
2018-07-26T17:29:53.652Z,44.80
2018-07-26T17:32:22.116Z,46.50
2018-07-26T17:37:18.780Z,45.40
2018-07-26T17:42:15.436Z,46.00
2018-07-26T17:44:43.822Z,45.40
2018-07-26T17:49:40.663Z,46.00
2018-07-26T17:52:09.083Z,46.70
2018-07-26T17:54:37.591Z,46.80
2018-07-26T17:57:06.079Z,46.80
2018-07-26T17:59:34.459Z,47.90
2018-07-26T18:02:02.875Z,49.20
2018-07-26T18:04:31.258Z,48.70
2018-07-26T18:06:59.691Z,47.80
2018-07-26T18:09:28.105Z,48.10
2018-07-26T18:11:56.504Z,49.20
2018-07-26T18:16:52.987Z,50.20
2018-07-26T18:19:21.376Z,51.30
2018-07-26T18:21:49.779Z,51.20
2018-07-26T18:24:18.155Z,52.00
2018-07-26T18:26:46.569Z,52.50
2018-07-26T18:29:15.076Z,53.40
2018-07-26T18:31:43.545Z,54.20
2018-07-26T18:34:11.908Z,54.80
2018-07-26T18:36:40.295Z,55.10
2018-07-26T18:39:10.936Z,56.60
2018-07-26T18:41:39.501Z,57.10
2018-07-26T18:44:08.565Z,57.00
2018-07-26T18:46:37.591Z,57.20
2018-07-26T18:49:06.750Z,57.50
2018-07-26T18:51:35.154Z,57.90
2018-07-26T18:54:03.601Z,58.00
2018-07-26T18:56:32.021Z,58.10
2018-07-26T18:59:00.419Z,58.40
2018-07-26T19:01:28.831Z,58.50
2018-07-26T19:03:57.249Z,59.00
2018-07-26T19:06:25.666Z,60.20
2018-07-26T19:08:54.095Z,61.50
2018-07-26T19:11:22.498Z,61.70
2018-07-26T19:13:50.906Z,62.00
2018-07-26T19:16:19.292Z,62.00
2018-07-26T19:18:47.688Z,62.30
2018-07-26T19:21:16.080Z,63.10
2018-07-26T19:23:44.508Z,64.30
2018-07-26T19:26:12.887Z,65.40
2018-07-26T19:28:41.302Z,66.20
2018-07-26T19:31:09.679Z,66.70
2018-07-26T19:33:38.099Z,66.80
2018-07-26T19:36:06.881Z,67.10
2018-07-26T19:38:35.260Z,67.10
2018-07-26T19:41:03.706Z,66.90
2018-07-26T19:43:32.132Z,66.30
2018-07-26T19:46:00.522Z,66.30
2018-07-26T19:48:28.911Z,67.00
2018-07-26T19:50:57.323Z,67.30
2018-07-26T19:53:25.739Z,67.40
2018-07-26T19:55:54.111Z,67.40
2018-07-26T19:58:22.650Z,69.00
2018-07-26T20:00:51.060Z,69.70
2018-07-26T20:03:19.455Z,71.00
2018-07-26T20:05:47.853Z,71.50
2018-07-26T20:08:16.587Z,71.10
2018-07-26T20:10:45.170Z,70.90
2018-07-26T20:13:13.571Z,71.70
2018-07-26T20:15:41.950Z,71.60
2018-07-26T20:18:10.355Z,71.60
2018-07-26T20:20:38.718Z,71.30
2018-07-26T20:23:07.166Z,71.40
2018-07-26T20:25:39.780Z,71.40
2018-07-26T20:28:08.625Z,71.10
2018-07-26T20:30:36.988Z,70.40
2018-07-26T20:33:05.401Z,71.00
2018-07-26T20:35:33.790Z,73.50
2018-07-26T20:38:02.205Z,73.50
2018-07-26T20:40:30.643Z,74.20
2018-07-26T20:42:59.022Z,74.70
2018-07-26T20:45:27.447Z,74.70
2018-07-26T20:47:55.820Z,74.30
2018-07-26T20:50:24.260Z,74.30
2018-07-26T20:52:52.630Z,73.30
2018-07-26T20:55:21.014Z,74.10
2018-07-26T20:57:49.404Z,75.70
2018-07-26T21:00:17.835Z,76.70
2018-07-26T21:02:46.309Z,76.40
2018-07-26T21:05:14.781Z,75.50
2018-07-26T21:10:11.365Z,74.10
2018-07-26T21:12:39.740Z,75.20
2018-07-26T21:15:09.212Z,76.90
2018-07-26T21:17:37.612Z,76.00
2018-07-26T21:20:06.151Z,75.80
2018-07-26T21:22:34.743Z,75.30
2018-07-26T21:25:03.148Z,75.20
2018-07-26T21:27:31.527Z,74.50
2018-07-26T21:29:59.924Z,74.10
2018-07-26T21:32:28.309Z,73.60
2018-07-26T21:34:56.700Z,73.30
2018-07-26T21:37:25.076Z,73.00
2018-07-26T21:39:53.696Z,72.80
2018-07-26T21:42:22.076Z,73.00
2018-07-26T21:44:50.464Z,72.80
2018-07-26T21:47:18.847Z,72.30
2018-07-26T21:49:47.259Z,72.40
2018-07-26T21:52:15.663Z,71.90
2018-07-26T21:54:44.060Z,72.20
2018-07-26T21:57:12.441Z,71.80
2018-07-26T21:59:40.860Z,71.90
2018-07-26T22:04:37.400Z,71.80
2018-07-26T22:07:05.784Z,71.90
2018-07-26T22:09:34.223Z,72.40
2018-07-26T22:12:02.628Z,73.10
2018-07-26T22:14:31.019Z,72.70
2018-07-26T22:16:59.432Z,72.10
2018-07-26T22:19:27.831Z,73.20
2018-07-26T22:21:56.208Z,73.20
2018-07-26T22:24:24.600Z,73.80
2018-07-26T22:26:53.531Z,74.20
2018-07-26T22:29:21.932Z,73.90
2018-07-26T22:31:50.335Z,73.90
2018-07-26T22:34:18.733Z,74.30
2018-07-26T22:36:47.127Z,73.40
2018-07-26T22:39:15.537Z,74.00
2018-07-26T22:41:43.910Z,74.40
2018-07-26T22:44:12.319Z,75.20
2018-07-26T22:46:40.694Z,75.80
2018-07-26T22:49:09.072Z,76.00
2018-07-26T22:51:37.506Z,78.20
2018-07-26T22:54:05.939Z,78.30
2018-07-26T22:56:34.450Z,77.50
2018-07-26T22:59:03.079Z,77.50
2018-07-26T23:01:31.492Z,77.40
2018-07-26T23:03:59.887Z,76.70
2018-07-26T23:06:28.654Z,80.20
2018-07-26T23:08:57.042Z,81.10
2018-07-26T23:11:25.455Z,80.50
2018-07-26T23:13:54.668Z,81.20
2018-07-26T23:16:23.068Z,79.20
2018-07-26T23:18:51.444Z,82.40
2018-07-26T23:21:19.854Z,83.10
2018-07-26T23:23:48.223Z,80.30
2018-07-26T23:26:16.629Z,82.00
2018-07-26T23:28:45.013Z,80.50
2018-07-26T23:31:13.400Z,81.30
2018-07-26T23:33:41.783Z,78.80
2018-07-26T23:36:10.177Z,81.60
2018-07-26T23:38:38.550Z,80.80
2018-07-26T23:41:07.059Z,80.80
2018-07-26T23:43:35.439Z,81.60
2018-07-26T23:46:10.335Z,80.80
2018-07-26T23:48:38.709Z,79.80
2018-07-26T23:51:07.324Z,79.70
2018-07-26T23:53:35.698Z,78.60
2018-07-26T23:56:04.127Z,78.50
2018-07-26T23:58:32.497Z,77.80
